sensor_id;sensor_type;location;lat;lon;timestamp;temperature;humidity
14401;DHT22;7285;50.894;5.462;2024-02-14T00:02:23;8.80;99.90
14401;DHT22;7285;50.894;5.462;2024-02-14T00:04:51;8.70;99.90
14401;DHT22;7285;50.894;5.462;2024-02-14T00:07:19;8.70;99.90
14401;DHT22;7285;50.894;5.462;2024-02-14T00:09:46;8.80;99.90
14401;DHT22;7285;50.894;5.462;2024-02-14T00:12:13;8.80;99.90
14401;DHT22;7285;50.894;5.462;2024-02-14T00:14:39;8.80;99.90
14401;DHT22;7285;50.894;5.462;2024-02-14T00:17:08;8.80;99.90
14401;DHT22;7285;50.894;5.462;2024-02-14T00:19:36;8.80;99.90
14401;DHT22;7285;50.894;5.462;2024-02-14T00:22:03;8.80;99.90
14401;DHT22;7285;50.894;5.462;2024-02-14T00:24:30;8.90;99.90
14401;DHT22;7285;50.894;5.462;2024-02-14T00:26:57;8.80;99.90
14401;DHT22;7285;50.894;5.462;2024-02-14T00:29:26;8.90;99.90
14401;DHT22;7285;50.894;5.462;2024-02-14T00:31:53;8.90;99.90
14401;DHT22;7285;50.894;5.462;2024-02-14T00:34:21;8.90;99.90
14401;DHT22;7285;50.894;5.462;2024-02-14T00:36:48;8.90;99.90
14401;DHT22;7285;50.894;5.462;2024-02-14T00:39:15;8.90;99.90
14401;DHT22;7285;50.894;5.462;2024-02-14T00:41:42;8.90;99.90
14401;DHT22;7285;50.894;5.462;2024-02-14T00:44:09;8.90;99.90
14401;DHT22;7285;50.894;5.462;2024-02-14T00:46:35;9.00;99.90
14401;DHT22;7285;50.894;5.462;2024-02-14T00:49:02;9.00;99.90
14401;DHT22;7285;50.894;5.462;2024-02-14T00:51:31;9.00;99.90
14401;DHT22;7285;50.894;5.462;2024-02-14T00:53:57;9.00;99.90
14401;DHT22;7285;50.894;5.462;2024-02-14T00:56:24;9.00;99.90
14401;DHT22;7285;50.894;5.462;2024-02-14T00:58:51;9.00;99.90
14401;DHT22;7285;50.894;5.462;2024-02-14T01:01:18;9.00;99.90
14401;DHT22;7285;50.894;5.462;2024-02-14T01:03:45;9.00;99.90
14401;DHT22;7285;50.894;5.462;2024-02-14T01:06:12;9.00;99.90
14401;DHT22;7285;50.894;5.462;2024-02-14T01:08:41;9.00;99.90
14401;DHT22;7285;50.894;5.462;2024-02-14T01:11:08;8.90;99.90
14401;DHT22;7285;50.894;5.462;2024-02-14T01:13:35;9.00;99.90
14401;DHT22;7285;50.894;5.462;2024-02-14T01:16:03;9.00;99.90
14401;DHT22;7285;50.894;5.462;2024-02-14T01:18:30;8.90;99.90
14401;DHT22;7285;50.894;5.462;2024-02-14T01:20:57;9.00;99.90
14401;DHT22;7285;50.894;5.462;2024-02-14T01:23:24;9.00;99.90
14401;DHT22;7285;50.894;5.462;2024-02-14T01:25:52;9.00;99.90
14401;DHT22;7285;50.894;5.462;2024-02-14T01:28:20;9.00;99.90
14401;DHT22;7285;50.894;5.462;2024-02-14T01:30:47;9.00;99.90
14401;DHT22;7285;50.894;5.462;2024-02-14T01:33:14;9.10;99.90
14401;DHT22;7285;50.894;5.462;2024-02-14T01:35:42;9.00;99.90
14401;DHT22;7285;50.894;5.462;2024-02-14T01:38:09;9.00;99.90
14401;DHT22;7285;50.894;5.462;2024-02-14T01:40:37;9.10;99.90
14401;DHT22;7285;50.894;5.462;2024-02-14T01:43:05;9.00;99.90
14401;DHT22;7285;50.894;5.462;2024-02-14T01:45:32;9.10;99.90
14401;DHT22;7285;50.894;5.462;2024-02-14T01:48:00;9.00;99.90
14401;DHT22;7285;50.894;5.462;2024-02-14T01:50:27;9.10;99.90
14401;DHT22;7285;50.894;5.462;2024-02-14T01:52:56;9.10;99.90
14401;DHT22;7285;50.894;5.462;2024-02-14T01:55:25;9.10;99.90
14401;DHT22;7285;50.894;5.462;2024-02-14T01:57:54;9.20;99.90
14401;DHT22;7285;50.894;5.462;2024-02-14T02:00:22;9.20;99.90
14401;DHT22;7285;50.894;5.462;2024-02-14T02:02:49;9.20;99.90
14401;DHT22;7285;50.894;5.462;2024-02-14T02:05:16;9.20;99.90
14401;DHT22;7285;50.894;5.462;2024-02-14T02:07:44;9.30;99.90
14401;DHT22;7285;50.894;5.462;2024-02-14T02:10:14;9.30;99.90
14401;DHT22;7285;50.894;5.462;2024-02-14T02:12:41;9.30;99.90
14401;DHT22;7285;50.894;5.462;2024-02-14T02:15:08;9.30;99.90
14401;DHT22;7285;50.894;5.462;2024-02-14T02:17:40;9.30;99.90
14401;DHT22;7285;50.894;5.462;2024-02-14T02:20:08;9.30;99.90
14401;DHT22;7285;50.894;5.462;2024-02-14T02:22:35;9.30;99.90
14401;DHT22;7285;50.894;5.462;2024-02-14T02:25:04;9.30;99.90
14401;DHT22;7285;50.894;5.462;2024-02-14T02:27:33;9.20;99.90
14401;DHT22;7285;50.894;5.462;2024-02-14T02:30:04;9.20;99.90
14401;DHT22;7285;50.894;5.462;2024-02-14T02:32:31;9.20;99.90
14401;DHT22;7285;50.894;5.462;2024-02-14T02:34:58;9.10;99.90
14401;DHT22;7285;50.894;5.462;2024-02-14T02:37:26;9.10;99.90
14401;DHT22;7285;50.894;5.462;2024-02-14T02:39:56;9.10;99.90
14401;DHT22;7285;50.894;5.462;2024-02-14T02:42:24;9.10;99.90
14401;DHT22;7285;50.894;5.462;2024-02-14T02:44:51;9.10;99.90
14401;DHT22;7285;50.894;5.462;2024-02-14T02:47:18;9.10;99.90
14401;DHT22;7285;50.894;5.462;2024-02-14T02:49:45;9.10;99.90
14401;DHT22;7285;50.894;5.462;2024-02-14T02:52:12;9.10;99.90
14401;DHT22;7285;50.894;5.462;2024-02-14T02:54:40;9.10;99.90
14401;DHT22;7285;50.894;5.462;2024-02-14T02:57:09;9.10;99.90
14401;DHT22;7285;50.894;5.462;2024-02-14T02:59:38;9.10;99.90
14401;DHT22;7285;50.894;5.462;2024-02-14T03:02:08;9.00;99.90
14401;DHT22;7285;50.894;5.462;2024-02-14T03:04:37;9.00;99.90
14401;DHT22;7285;50.894;5.462;2024-02-14T03:07:04;9.10;99.90
14401;DHT22;7285;50.894;5.462;2024-02-14T03:09:34;9.10;99.90
14401;DHT22;7285;50.894;5.462;2024-02-14T03:12:01;9.10;99.90
14401;DHT22;7285;50.894;5.462;2024-02-14T03:14:29;9.10;99.90
14401;DHT22;7285;50.894;5.462;2024-02-14T03:16:59;9.20;99.90
14401;DHT22;7285;50.894;5.462;2024-02-14T03:19:27;9.10;99.90
14401;DHT22;7285;50.894;5.462;2024-02-14T03:21:54;9.10;99.90
14401;DHT22;7285;50.894;5.462;2024-02-14T03:24:21;9.10;99.90
14401;DHT22;7285;50.894;5.462;2024-02-14T03:26:48;9.10;99.90
14401;DHT22;7285;50.894;5.462;2024-02-14T03:29:17;9.10;99.90
14401;DHT22;7285;50.894;5.462;2024-02-14T03:31:45;9.10;99.90
14401;DHT22;7285;50.894;5.462;2024-02-14T03:34:13;9.20;99.90
14401;DHT22;7285;50.894;5.462;2024-02-14T03:36:40;9.20;99.90
14401;DHT22;7285;50.894;5.462;2024-02-14T03:39:08;9.20;99.90
14401;DHT22;7285;50.894;5.462;2024-02-14T03:41:36;9.10;99.90
14401;DHT22;7285;50.894;5.462;2024-02-14T03:44:03;9.10;99.90
14401;DHT22;7285;50.894;5.462;2024-02-14T03:46:32;9.20;99.90
14401;DHT22;7285;50.894;5.462;2024-02-14T03:49:01;9.20;99.90
14401;DHT22;7285;50.894;5.462;2024-02-14T03:51:29;9.20;99.90
14401;DHT22;7285;50.894;5.462;2024-02-14T03:53:56;9.20;99.90
14401;DHT22;7285;50.894;5.462;2024-02-14T03:56:24;9.20;99.90
14401;DHT22;7285;50.894;5.462;2024-02-14T03:58:51;9.30;99.90
14401;DHT22;7285;50.894;5.462;2024-02-14T04:01:18;9.30;99.90
14401;DHT22;7285;50.894;5.462;2024-02-14T04:03:46;9.30;99.90
14401;DHT22;7285;50.894;5.462;2024-02-14T04:06:14;9.30;99.90
14401;DHT22;7285;50.894;5.462;2024-02-14T04:08:42;9.30;99.90
14401;DHT22;7285;50.894;5.462;2024-02-14T04:11:09;9.30;99.90
14401;DHT22;7285;50.894;5.462;2024-02-14T04:13:39;9.40;99.90
14401;DHT22;7285;50.894;5.462;2024-02-14T04:16:06;9.40;99.90
14401;DHT22;7285;50.894;5.462;2024-02-14T04:18:33;9.40;99.90
14401;DHT22;7285;50.894;5.462;2024-02-14T04:21:00;9.40;99.90
14401;DHT22;7285;50.894;5.462;2024-02-14T04:23:26;9.30;99.90
14401;DHT22;7285;50.894;5.462;2024-02-14T04:25:55;9.30;99.90
14401;DHT22;7285;50.894;5.462;2024-02-14T04:28:23;9.20;99.90
14401;DHT22;7285;50.894;5.462;2024-02-14T04:30:50;9.20;99.90
14401;DHT22;7285;50.894;5.462;2024-02-14T04:33:19;9.20;99.90
14401;DHT22;7285;50.894;5.462;2024-02-14T04:35:47;9.20;99.90
14401;DHT22;7285;50.894;5.462;2024-02-14T04:38:14;9.20;99.90
14401;DHT22;7285;50.894;5.462;2024-02-14T04:40:42;9.20;99.90
14401;DHT22;7285;50.894;5.462;2024-02-14T04:43:10;9.20;99.90
14401;DHT22;7285;50.894;5.462;2024-02-14T04:45:37;9.20;99.90
14401;DHT22;7285;50.894;5.462;2024-02-14T04:48:05;9.30;99.90
14401;DHT22;7285;50.894;5.462;2024-02-14T04:50:33;9.20;99.90
14401;DHT22;7285;50.894;5.462;2024-02-14T04:53:00;9.20;99.90
14401;DHT22;7285;50.894;5.462;2024-02-14T04:55:27;9.20;99.90
14401;DHT22;7285;50.894;5.462;2024-02-14T04:57:54;9.20;99.90
14401;DHT22;7285;50.894;5.462;2024-02-14T05:00:22;9.20;99.90
14401;DHT22;7285;50.894;5.462;2024-02-14T05:02:49;9.20;99.90
14401;DHT22;7285;50.894;5.462;2024-02-14T05:05:16;9.20;99.90
14401;DHT22;7285;50.894;5.462;2024-02-14T05:07:44;9.20;99.90
14401;DHT22;7285;50.894;5.462;2024-02-14T05:10:13;9.20;99.90
14401;DHT22;7285;50.894;5.462;2024-02-14T05:12:40;9.20;99.90
14401;DHT22;7285;50.894;5.462;2024-02-14T05:15:08;9.20;99.90
14401;DHT22;7285;50.894;5.462;2024-02-14T05:17:36;9.20;99.90
14401;DHT22;7285;50.894;5.462;2024-02-14T05:20:03;9.20;99.90
14401;DHT22;7285;50.894;5.462;2024-02-14T05:22:35;9.20;99.90
14401;DHT22;7285;50.894;5.462;2024-02-14T05:25:02;9.20;99.90
14401;DHT22;7285;50.894;5.462;2024-02-14T05:27:29;9.20;99.90
14401;DHT22;7285;50.894;5.462;2024-02-14T05:29:56;9.20;99.90
14401;DHT22;7285;50.894;5.462;2024-02-14T05:32:23;9.20;99.90
14401;DHT22;7285;50.894;5.462;2024-02-14T05:34:52;9.20;99.90
14401;DHT22;7285;50.894;5.462;2024-02-14T05:37:20;9.20;99.90
14401;DHT22;7285;50.894;5.462;2024-02-14T05:39:47;9.20;99.90
14401;DHT22;7285;50.894;5.462;2024-02-14T05:42:13;9.20;99.90
14401;DHT22;7285;50.894;5.462;2024-02-14T05:44:41;9.30;99.90
14401;DHT22;7285;50.894;5.462;2024-02-14T05:47:08;9.30;99.90
14401;DHT22;7285;50.894;5.462;2024-02-14T05:49:37;9.30;99.90
14401;DHT22;7285;50.894;5.462;2024-02-14T05:52:06;9.30;99.90
14401;DHT22;7285;50.894;5.462;2024-02-14T05:54:33;9.30;99.90
14401;DHT22;7285;50.894;5.462;2024-02-14T05:57:01;9.30;99.90
14401;DHT22;7285;50.894;5.462;2024-02-14T05:59:28;9.30;99.90
14401;DHT22;7285;50.894;5.462;2024-02-14T06:01:56;9.30;99.90
14401;DHT22;7285;50.894;5.462;2024-02-14T06:04:23;9.40;99.90
14401;DHT22;7285;50.894;5.462;2024-02-14T06:06:50;9.40;99.90
14401;DHT22;7285;50.894;5.462;2024-02-14T06:09:18;9.40;99.90
14401;DHT22;7285;50.894;5.462;2024-02-14T06:11:45;9.40;99.90
14401;DHT22;7285;50.894;5.462;2024-02-14T06:14:12;9.50;99.90
14401;DHT22;7285;50.894;5.462;2024-02-14T06:16:39;9.40;99.90
14401;DHT22;7285;50.894;5.462;2024-02-14T06:19:06;9.40;99.90
14401;DHT22;7285;50.894;5.462;2024-02-14T06:21:33;9.50;99.90
14401;DHT22;7285;50.894;5.462;2024-02-14T06:24:00;9.40;99.90
14401;DHT22;7285;50.894;5.462;2024-02-14T06:26:30;9.50;99.90
14401;DHT22;7285;50.894;5.462;2024-02-14T06:28:58;9.50;99.90
14401;DHT22;7285;50.894;5.462;2024-02-14T06:31:25;9.50;99.90
14401;DHT22;7285;50.894;5.462;2024-02-14T06:33:51;9.50;99.90
14401;DHT22;7285;50.894;5.462;2024-02-14T06:36:18;9.50;99.90
14401;DHT22;7285;50.894;5.462;2024-02-14T06:38:45;9.50;99.90
14401;DHT22;7285;50.894;5.462;2024-02-14T06:41:12;9.50;99.90
14401;DHT22;7285;50.894;5.462;2024-02-14T06:43:41;9.50;99.90
14401;DHT22;7285;50.894;5.462;2024-02-14T06:46:08;9.50;99.90
14401;DHT22;7285;50.894;5.462;2024-02-14T06:48:35;9.50;99.90
14401;DHT22;7285;50.894;5.462;2024-02-14T06:51:02;9.50;99.90
14401;DHT22;7285;50.894;5.462;2024-02-14T06:53:29;9.50;99.90
14401;DHT22;7285;50.894;5.462;2024-02-14T06:55:56;9.50;99.90
14401;DHT22;7285;50.894;5.462;2024-02-14T06:58:23;9.50;99.90
14401;DHT22;7285;50.894;5.462;2024-02-14T07:00:51;9.60;99.90
14401;DHT22;7285;50.894;5.462;2024-02-14T07:03:18;9.60;99.90
14401;DHT22;7285;50.894;5.462;2024-02-14T07:05:45;9.60;99.90
14401;DHT22;7285;50.894;5.462;2024-02-14T07:08:12;9.60;99.90
14401;DHT22;7285;50.894;5.462;2024-02-14T07:10:39;9.60;99.90
14401;DHT22;7285;50.894;5.462;2024-02-14T07:13:05;9.60;99.90
14401;DHT22;7285;50.894;5.462;2024-02-14T07:15:32;9.60;99.90
14401;DHT22;7285;50.894;5.462;2024-02-14T07:18:01;9.60;99.90
14401;DHT22;7285;50.894;5.462;2024-02-14T07:20:28;9.70;99.90
14401;DHT22;7285;50.894;5.462;2024-02-14T07:22:55;9.70;99.90
14401;DHT22;7285;50.894;5.462;2024-02-14T07:25:22;9.80;99.90
14401;DHT22;7285;50.894;5.462;2024-02-14T07:27:49;9.80;99.90
14401;DHT22;7285;50.894;5.462;2024-02-14T07:30:16;9.90;99.90
14401;DHT22;7285;50.894;5.462;2024-02-14T07:32:44;9.90;99.90
14401;DHT22;7285;50.894;5.462;2024-02-14T07:35:12;10.00;99.90
14401;DHT22;7285;50.894;5.462;2024-02-14T07:37:39;10.00;99.90
14401;DHT22;7285;50.894;5.462;2024-02-14T07:40:08;10.00;99.90
14401;DHT22;7285;50.894;5.462;2024-02-14T07:42:35;10.10;99.90
14401;DHT22;7285;50.894;5.462;2024-02-14T07:45:03;10.10;99.90
14401;DHT22;7285;50.894;5.462;2024-02-14T07:47:30;10.10;99.90
14401;DHT22;7285;50.894;5.462;2024-02-14T07:49:57;10.20;99.90
14401;DHT22;7285;50.894;5.462;2024-02-14T07:52:25;10.10;99.90
14401;DHT22;7285;50.894;5.462;2024-02-14T07:54:53;10.20;99.90
14401;DHT22;7285;50.894;5.462;2024-02-14T07:57:21;10.20;99.90
14401;DHT22;7285;50.894;5.462;2024-02-14T07:59:48;10.30;99.90
14401;DHT22;7285;50.894;5.462;2024-02-14T08:02:15;10.30;99.90
14401;DHT22;7285;50.894;5.462;2024-02-14T08:04:42;10.30;99.90
14401;DHT22;7285;50.894;5.462;2024-02-14T08:07:09;10.40;99.90
14401;DHT22;7285;50.894;5.462;2024-02-14T08:09:38;10.40;99.90
14401;DHT22;7285;50.894;5.462;2024-02-14T08:12:06;10.50;99.90
14401;DHT22;7285;50.894;5.462;2024-02-14T08:14:33;10.50;99.90
14401;DHT22;7285;50.894;5.462;2024-02-14T08:17:00;10.50;99.90
14401;DHT22;7285;50.894;5.462;2024-02-14T08:19:27;10.60;99.90
14401;DHT22;7285;50.894;5.462;2024-02-14T08:21:54;10.60;99.90
14401;DHT22;7285;50.894;5.462;2024-02-14T08:24:24;10.70;99.90
14401;DHT22;7285;50.894;5.462;2024-02-14T08:26:53;10.70;99.90
14401;DHT22;7285;50.894;5.462;2024-02-14T08:29:20;10.80;99.90
14401;DHT22;7285;50.894;5.462;2024-02-14T08:31:47;10.80;99.90
14401;DHT22;7285;50.894;5.462;2024-02-14T08:34:14;10.80;99.90
14401;DHT22;7285;50.894;5.462;2024-02-14T08:36:41;10.90;99.90
14401;DHT22;7285;50.894;5.462;2024-02-14T08:39:09;10.90;99.90
14401;DHT22;7285;50.894;5.462;2024-02-14T08:41:36;10.90;99.90
14401;DHT22;7285;50.894;5.462;2024-02-14T08:44:05;10.90;99.90
14401;DHT22;7285;50.894;5.462;2024-02-14T08:46:32;10.90;99.90
14401;DHT22;7285;50.894;5.462;2024-02-14T08:49:00;11.00;99.90
14401;DHT22;7285;50.894;5.462;2024-02-14T08:51:27;11.10;99.90
14401;DHT22;7285;50.894;5.462;2024-02-14T08:53:54;11.10;99.90
14401;DHT22;7285;50.894;5.462;2024-02-14T08:56:25;11.10;99.90
14401;DHT22;7285;50.894;5.462;2024-02-14T08:58:52;11.20;99.90
14401;DHT22;7285;50.894;5.462;2024-02-14T09:01:20;11.20;99.90
14401;DHT22;7285;50.894;5.462;2024-02-14T09:03:47;11.30;99.90
14401;DHT22;7285;50.894;5.462;2024-02-14T09:06:15;11.30;99.90
14401;DHT22;7285;50.894;5.462;2024-02-14T09:08:44;11.40;99.90
14401;DHT22;7285;50.894;5.462;2024-02-14T09:11:11;11.50;99.90
14401;DHT22;7285;50.894;5.462;2024-02-14T09:13:38;11.50;99.90
14401;DHT22;7285;50.894;5.462;2024-02-14T09:16:06;11.60;99.90
14401;DHT22;7285;50.894;5.462;2024-02-14T09:18:34;11.60;99.90
14401;DHT22;7285;50.894;5.462;2024-02-14T09:21:01;11.60;99.90
14401;DHT22;7285;50.894;5.462;2024-02-14T09:23:29;11.50;99.90
14401;DHT22;7285;50.894;5.462;2024-02-14T09:25:57;11.50;99.90
14401;DHT22;7285;50.894;5.462;2024-02-14T09:28:24;11.50;99.90
14401;DHT22;7285;50.894;5.462;2024-02-14T09:30:51;11.40;99.90
14401;DHT22;7285;50.894;5.462;2024-02-14T09:33:20;11.40;99.90
14401;DHT22;7285;50.894;5.462;2024-02-14T09:35:48;11.40;99.90
14401;DHT22;7285;50.894;5.462;2024-02-14T09:38:17;11.50;99.90
14401;DHT22;7285;50.894;5.462;2024-02-14T09:40:44;11.50;99.90
14401;DHT22;7285;50.894;5.462;2024-02-14T09:43:17;11.50;99.90
14401;DHT22;7285;50.894;5.462;2024-02-14T09:45:51;11.40;99.90
14401;DHT22;7285;50.894;5.462;2024-02-14T09:48:19;11.40;99.90
14401;DHT22;7285;50.894;5.462;2024-02-14T09:50:49;11.40;99.90
14401;DHT22;7285;50.894;5.462;2024-02-14T09:53:19;11.50;99.90
14401;DHT22;7285;50.894;5.462;2024-02-14T09:55:46;11.50;99.90
14401;DHT22;7285;50.894;5.462;2024-02-14T09:58:13;11.50;99.90
14401;DHT22;7285;50.894;5.462;2024-02-14T10:00:40;11.60;99.90
14401;DHT22;7285;50.894;5.462;2024-02-14T10:03:08;11.60;99.90
14401;DHT22;7285;50.894;5.462;2024-02-14T10:05:35;11.60;99.90
14401;DHT22;7285;50.894;5.462;2024-02-14T10:08:04;11.70;99.90
14401;DHT22;7285;50.894;5.462;2024-02-14T10:10:32;11.60;99.90
14401;DHT22;7285;50.894;5.462;2024-02-14T10:13:03;11.70;99.90
14401;DHT22;7285;50.894;5.462;2024-02-14T10:15:30;11.70;99.90
14401;DHT22;7285;50.894;5.462;2024-02-14T10:17:58;11.70;99.90
14401;DHT22;7285;50.894;5.462;2024-02-14T10:20:25;11.80;99.90
14401;DHT22;7285;50.894;5.462;2024-02-14T10:23:00;11.80;99.90
14401;DHT22;7285;50.894;5.462;2024-02-14T10:25:29;11.90;99.90
14401;DHT22;7285;50.894;5.462;2024-02-14T10:27:56;12.00;99.90
14401;DHT22;7285;50.894;5.462;2024-02-14T10:30:23;12.00;99.90
14401;DHT22;7285;50.894;5.462;2024-02-14T10:32:50;12.00;99.90
14401;DHT22;7285;50.894;5.462;2024-02-14T10:35:20;12.00;99.90
14401;DHT22;7285;50.894;5.462;2024-02-14T10:37:47;12.00;99.90
14401;DHT22;7285;50.894;5.462;2024-02-14T10:40:15;12.10;99.90
14401;DHT22;7285;50.894;5.462;2024-02-14T10:42:44;12.00;99.90
14401;DHT22;7285;50.894;5.462;2024-02-14T10:45:11;12.00;99.90
14401;DHT22;7285;50.894;5.462;2024-02-14T10:47:42;12.00;99.90
14401;DHT22;7285;50.894;5.462;2024-02-14T10:50:12;12.10;99.90
14401;DHT22;7285;50.894;5.462;2024-02-14T10:52:41;12.00;99.90
14401;DHT22;7285;50.894;5.462;2024-02-14T10:55:09;11.90;99.90
14401;DHT22;7285;50.894;5.462;2024-02-14T10:57:38;12.00;99.90
14401;DHT22;7285;50.894;5.462;2024-02-14T11:00:10;11.90;99.90
14401;DHT22;7285;50.894;5.462;2024-02-14T11:02:40;11.80;99.90
14401;DHT22;7285;50.894;5.462;2024-02-14T11:05:11;11.80;99.90
14401;DHT22;7285;50.894;5.462;2024-02-14T11:07:44;11.80;99.90
14401;DHT22;7285;50.894;5.462;2024-02-14T11:10:14;11.70;99.90
14401;DHT22;7285;50.894;5.462;2024-02-14T11:12:42;11.70;99.90
14401;DHT22;7285;50.894;5.462;2024-02-14T11:15:16;11.80;99.90
14401;DHT22;7285;50.894;5.462;2024-02-14T11:17:43;11.70;99.90
14401;DHT22;7285;50.894;5.462;2024-02-14T11:20:18;11.70;99.90
14401;DHT22;7285;50.894;5.462;2024-02-14T11:22:55;11.60;99.90
14401;DHT22;7285;50.894;5.462;2024-02-14T11:25:23;11.70;99.90
14401;DHT22;7285;50.894;5.462;2024-02-14T11:27:55;11.60;99.90
14401;DHT22;7285;50.894;5.462;2024-02-14T11:30:34;11.60;99.90
14401;DHT22;7285;50.894;5.462;2024-02-14T11:33:14;11.50;99.90
14401;DHT22;7285;50.894;5.462;2024-02-14T11:35:42;11.40;99.90
14401;DHT22;7285;50.894;5.462;2024-02-14T11:38:09;11.40;99.90
14401;DHT22;7285;50.894;5.462;2024-02-14T11:40:36;11.40;99.90
14401;DHT22;7285;50.894;5.462;2024-02-14T11:43:04;11.40;99.90
14401;DHT22;7285;50.894;5.462;2024-02-14T11:45:33;11.40;99.90
14401;DHT22;7285;50.894;5.462;2024-02-14T11:48:00;11.40;99.90
14401;DHT22;7285;50.894;5.462;2024-02-14T11:50:27;11.30;99.90
14401;DHT22;7285;50.894;5.462;2024-02-14T11:52:55;11.40;99.90
14401;DHT22;7285;50.894;5.462;2024-02-14T11:55:28;11.40;99.90
14401;DHT22;7285;50.894;5.462;2024-02-14T11:57:55;11.40;99.90
14401;DHT22;7285;50.894;5.462;2024-02-14T12:00:22;11.40;99.90
14401;DHT22;7285;50.894;5.462;2024-02-14T12:02:52;11.40;99.90
14401;DHT22;7285;50.894;5.462;2024-02-14T12:05:20;11.40;99.90
14401;DHT22;7285;50.894;5.462;2024-02-14T12:07:47;11.40;99.90
14401;DHT22;7285;50.894;5.462;2024-02-14T12:10:14;11.40;99.90
14401;DHT22;7285;50.894;5.462;2024-02-14T12:12:45;11.40;99.90
14401;DHT22;7285;50.894;5.462;2024-02-14T12:15:12;11.40;99.90
14401;DHT22;7285;50.894;5.462;2024-02-14T12:17:41;11.40;99.90
14401;DHT22;7285;50.894;5.462;2024-02-14T12:20:10;11.40;99.90
14401;DHT22;7285;50.894;5.462;2024-02-14T12:22:38;11.40;99.90
14401;DHT22;7285;50.894;5.462;2024-02-14T12:25:06;11.40;99.90
14401;DHT22;7285;50.894;5.462;2024-02-14T12:27:37;11.40;99.90
14401;DHT22;7285;50.894;5.462;2024-02-14T12:30:05;11.50;99.90
14401;DHT22;7285;50.894;5.462;2024-02-14T12:32:32;11.40;99.90
14401;DHT22;7285;50.894;5.462;2024-02-14T12:34:59;11.40;99.90
14401;DHT22;7285;50.894;5.462;2024-02-14T12:37:28;11.50;99.90
14401;DHT22;7285;50.894;5.462;2024-02-14T12:39:55;11.50;99.90
14401;DHT22;7285;50.894;5.462;2024-02-14T12:42:22;11.40;99.90
14401;DHT22;7285;50.894;5.462;2024-02-14T12:44:51;11.50;99.90
14401;DHT22;7285;50.894;5.462;2024-02-14T12:47:19;11.40;99.90
14401;DHT22;7285;50.894;5.462;2024-02-14T12:49:47;11.40;99.90
14401;DHT22;7285;50.894;5.462;2024-02-14T12:52:15;11.40;99.90
14401;DHT22;7285;50.894;5.462;2024-02-14T12:54:43;11.50;99.90
14401;DHT22;7285;50.894;5.462;2024-02-14T12:57:10;11.50;99.90
14401;DHT22;7285;50.894;5.462;2024-02-14T12:59:38;11.50;99.90
14401;DHT22;7285;50.894;5.462;2024-02-14T13:02:05;11.50;99.90
14401;DHT22;7285;50.894;5.462;2024-02-14T13:04:33;11.50;99.90
14401;DHT22;7285;50.894;5.462;2024-02-14T13:07:00;11.50;99.90
14401;DHT22;7285;50.894;5.462;2024-02-14T13:09:27;11.50;99.90
14401;DHT22;7285;50.894;5.462;2024-02-14T13:11:55;11.60;99.90
14401;DHT22;7285;50.894;5.462;2024-02-14T13:14:23;11.60;99.90
14401;DHT22;7285;50.894;5.462;2024-02-14T13:16:50;11.70;99.90
14401;DHT22;7285;50.894;5.462;2024-02-14T13:19:18;11.70;99.90
14401;DHT22;7285;50.894;5.462;2024-02-14T13:21:45;11.70;99.90
14401;DHT22;7285;50.894;5.462;2024-02-14T13:24:13;11.60;99.90
14401;DHT22;7285;50.894;5.462;2024-02-14T13:26:40;11.70;99.90
14401;DHT22;7285;50.894;5.462;2024-02-14T13:29:08;11.60;99.90
14401;DHT22;7285;50.894;5.462;2024-02-14T13:31:35;11.60;99.90
14401;DHT22;7285;50.894;5.462;2024-02-14T13:34:02;11.70;99.90
14401;DHT22;7285;50.894;5.462;2024-02-14T13:36:30;11.70;99.90
14401;DHT22;7285;50.894;5.462;2024-02-14T13:38:58;11.60;99.90
14401;DHT22;7285;50.894;5.462;2024-02-14T13:41:25;11.60;99.90
14401;DHT22;7285;50.894;5.462;2024-02-14T13:43:52;11.70;99.90
14401;DHT22;7285;50.894;5.462;2024-02-14T13:46:21;11.70;99.90
14401;DHT22;7285;50.894;5.462;2024-02-14T13:48:48;11.70;99.90
14401;DHT22;7285;50.894;5.462;2024-02-14T13:51:15;11.70;99.90
14401;DHT22;7285;50.894;5.462;2024-02-14T13:53:42;11.70;99.90
14401;DHT22;7285;50.894;5.462;2024-02-14T13:56:10;11.70;99.90
14401;DHT22;7285;50.894;5.462;2024-02-14T13:58:36;11.70;99.90
14401;DHT22;7285;50.894;5.462;2024-02-14T14:01:04;11.70;99.90
14401;DHT22;7285;50.894;5.462;2024-02-14T14:03:33;11.70;99.90
14401;DHT22;7285;50.894;5.462;2024-02-14T14:06:02;11.80;99.90
14401;DHT22;7285;50.894;5.462;2024-02-14T14:08:30;11.80;99.90
14401;DHT22;7285;50.894;5.462;2024-02-14T14:10:57;11.80;99.90
14401;DHT22;7285;50.894;5.462;2024-02-14T14:13:24;11.80;99.90
14401;DHT22;7285;50.894;5.462;2024-02-14T14:15:54;11.80;99.90
14401;DHT22;7285;50.894;5.462;2024-02-14T14:18:22;11.90;99.90
14401;DHT22;7285;50.894;5.462;2024-02-14T14:20:50;11.80;99.90
14401;DHT22;7285;50.894;5.462;2024-02-14T14:23:18;11.80;99.90
14401;DHT22;7285;50.894;5.462;2024-02-14T14:25:45;11.80;99.90
14401;DHT22;7285;50.894;5.462;2024-02-14T14:28:12;11.80;99.90
14401;DHT22;7285;50.894;5.462;2024-02-14T14:30:40;11.80;99.90
14401;DHT22;7285;50.894;5.462;2024-02-14T14:33:07;11.80;99.90
14401;DHT22;7285;50.894;5.462;2024-02-14T14:35:34;11.80;99.90
14401;DHT22;7285;50.894;5.462;2024-02-14T14:38:03;11.80;99.90
14401;DHT22;7285;50.894;5.462;2024-02-14T14:40:30;11.80;99.90
14401;DHT22;7285;50.894;5.462;2024-02-14T14:42:57;11.70;99.90
14401;DHT22;7285;50.894;5.462;2024-02-14T14:45:24;11.80;99.90
14401;DHT22;7285;50.894;5.462;2024-02-14T14:47:53;11.70;99.90
14401;DHT22;7285;50.894;5.462;2024-02-14T14:50:21;11.80;99.90
14401;DHT22;7285;50.894;5.462;2024-02-14T14:52:50;11.80;99.90
14401;DHT22;7285;50.894;5.462;2024-02-14T14:55:20;11.80;99.90
14401;DHT22;7285;50.894;5.462;2024-02-14T14:57:47;11.90;99.90
14401;DHT22;7285;50.894;5.462;2024-02-14T15:00:14;11.80;99.90
14401;DHT22;7285;50.894;5.462;2024-02-14T15:02:42;11.80;99.90
14401;DHT22;7285;50.894;5.462;2024-02-14T15:05:10;11.90;99.90
14401;DHT22;7285;50.894;5.462;2024-02-14T15:07:37;11.80;99.90
14401;DHT22;7285;50.894;5.462;2024-02-14T15:10:06;11.90;99.90
14401;DHT22;7285;50.894;5.462;2024-02-14T15:12:37;11.90;99.90
14401;DHT22;7285;50.894;5.462;2024-02-14T15:15:05;11.90;99.90
14401;DHT22;7285;50.894;5.462;2024-02-14T15:17:32;11.80;99.90
14401;DHT22;7285;50.894;5.462;2024-02-14T15:19:59;11.90;99.90
14401;DHT22;7285;50.894;5.462;2024-02-14T15:22:28;11.90;99.90
14401;DHT22;7285;50.894;5.462;2024-02-14T15:24:55;11.90;99.90
14401;DHT22;7285;50.894;5.462;2024-02-14T15:27:22;12.00;99.90
14401;DHT22;7285;50.894;5.462;2024-02-14T15:29:51;11.90;99.90
14401;DHT22;7285;50.894;5.462;2024-02-14T15:32:35;11.90;99.90
14401;DHT22;7285;50.894;5.462;2024-02-14T15:35:19;12.00;99.90
14401;DHT22;7285;50.894;5.462;2024-02-14T15:37:46;12.00;99.90
14401;DHT22;7285;50.894;5.462;2024-02-14T15:40:14;11.90;99.90
14401;DHT22;7285;50.894;5.462;2024-02-14T15:42:42;12.00;99.90
14401;DHT22;7285;50.894;5.462;2024-02-14T15:45:10;12.00;99.90
14401;DHT22;7285;50.894;5.462;2024-02-14T15:47:41;12.00;99.90
14401;DHT22;7285;50.894;5.462;2024-02-14T15:50:09;12.10;99.90
14401;DHT22;7285;50.894;5.462;2024-02-14T15:52:36;11.90;99.90
14401;DHT22;7285;50.894;5.462;2024-02-14T15:55:03;12.00;99.90
14401;DHT22;7285;50.894;5.462;2024-02-14T15:57:33;11.90;99.90